createdAt,value
2022-10-19T00:01:20.668Z,1.70
2022-10-19T00:03:51.712Z,1.70
2022-10-19T00:06:26.472Z,2.00
2022-10-19T00:09:12.717Z,1.73
2022-10-19T00:11:43.294Z,1.40
2022-10-19T00:14:17.028Z,1.42
2022-10-19T00:16:46.725Z,1.70
2022-10-19T00:19:20.606Z,1.60
2022-10-19T00:21:48.376Z,1.70
2022-10-19T00:24:16.173Z,1.42
2022-10-19T00:26:44.125Z,1.60
2022-10-19T00:29:13.454Z,1.30
2022-10-19T00:31:41.484Z,1.10
2022-10-19T00:34:09.203Z,1.52
2022-10-19T00:36:40.597Z,1.50
2022-10-19T00:39:12.234Z,1.60
2022-10-19T00:41:40.169Z,1.30
2022-10-19T00:44:47.560Z,1.60
2022-10-19T00:47:15.722Z,1.60
2022-10-19T00:49:45.400Z,1.30
2022-10-19T00:52:17.415Z,1.40
2022-10-19T00:54:47.300Z,1.45
2022-10-19T00:57:15.349Z,1.40
2022-10-19T00:59:44.702Z,1.50
2022-10-19T01:02:12.666Z,1.55
2022-10-19T01:04:46.010Z,1.60
2022-10-19T01:07:13.813Z,1.50
2022-10-19T01:09:41.599Z,1.55
2022-10-19T01:12:36.285Z,1.52
2022-10-19T01:15:14.584Z,1.60
2022-10-19T01:18:05.981Z,1.60
2022-10-19T01:20:57.429Z,1.50
2022-10-19T01:23:51.505Z,1.40
2022-10-19T01:26:46.190Z,1.63
2022-10-19T01:29:28.169Z,1.50
2022-10-19T01:32:05.415Z,1.45
2022-10-19T01:34:45.293Z,1.60
2022-10-19T01:37:22.827Z,1.30
2022-10-19T01:40:10.888Z,1.48
2022-10-19T01:42:49.650Z,1.65
2022-10-19T01:45:24.428Z,1.60
2022-10-19T01:47:58.783Z,1.77
2022-10-19T01:50:43.606Z,1.55
2022-10-19T01:53:13.610Z,1.77
2022-10-19T01:55:44.722Z,1.50
2022-10-19T01:58:17.880Z,1.60
2022-10-19T02:00:49.882Z,1.83
2022-10-19T02:03:18.594Z,1.75
2022-10-19T02:05:48.049Z,1.60
2022-10-19T02:08:22.487Z,1.60
2022-10-19T02:10:50.360Z,1.48
2022-10-19T02:13:20.920Z,1.77
2022-10-19T02:15:53.042Z,1.95
2022-10-19T02:18:28.789Z,1.67
2022-10-19T02:20:56.469Z,1.40
2022-10-19T02:23:27.887Z,1.67
2022-10-19T02:25:56.326Z,1.48
2022-10-19T02:30:51.540Z,1.58
2022-10-19T02:33:19.321Z,1.80
2022-10-19T02:35:48.223Z,1.73
2022-10-19T02:38:20.194Z,1.70
2022-10-19T02:41:08.127Z,1.63
2022-10-19T02:43:39.241Z,1.52
2022-10-19T02:46:15.974Z,1.60
2022-10-19T02:48:43.768Z,1.75
2022-10-19T02:51:27.210Z,1.80
2022-10-19T02:53:54.709Z,1.92
2022-10-19T02:56:23.081Z,1.55
2022-10-19T02:58:50.916Z,1.70
2022-10-19T03:01:18.772Z,1.85
2022-10-19T03:03:46.434Z,1.80
2022-10-19T03:06:14.389Z,2.10
2022-10-19T03:08:42.098Z,1.70
2022-10-19T03:11:09.825Z,1.67
2022-10-19T03:13:37.678Z,1.60
2022-10-19T03:16:08.341Z,1.88
2022-10-19T03:18:36.006Z,1.83
2022-10-19T03:21:07.166Z,1.50
2022-10-19T03:23:35.335Z,1.88
2022-10-19T03:26:03.173Z,1.63
2022-10-19T03:28:31.045Z,1.80
2022-10-19T03:30:58.868Z,1.90
2022-10-19T03:33:26.867Z,2.17
2022-10-19T03:36:14.108Z,1.70
2022-10-19T03:38:41.777Z,2.00
2022-10-19T03:41:10.029Z,1.75
2022-10-19T03:43:37.853Z,2.00
2022-10-19T03:46:05.610Z,1.88
2022-10-19T03:48:33.842Z,1.90
2022-10-19T03:51:04.494Z,2.10
2022-10-19T03:53:33.231Z,1.92
2022-10-19T03:56:04.154Z,2.30
2022-10-19T03:58:33.726Z,2.33
2022-10-19T04:01:01.807Z,2.40
2022-10-19T04:03:30.360Z,3.30
2022-10-19T04:06:06.801Z,2.60
2022-10-19T04:08:34.806Z,2.80
2022-10-19T04:11:05.913Z,2.55
2022-10-19T04:13:34.433Z,2.83
2022-10-19T04:16:02.304Z,3.35
2022-10-19T04:18:30.144Z,3.40
2022-10-19T04:21:03.277Z,3.70
2022-10-19T04:26:05.385Z,3.40
2022-10-19T04:28:34.772Z,3.90
2022-10-19T04:31:02.968Z,3.78
2022-10-19T04:33:30.714Z,3.78
2022-10-19T04:36:01.657Z,4.53
2022-10-19T04:38:30.643Z,5.05
2022-10-19T04:41:06.647Z,5.40
2022-10-19T04:43:34.696Z,5.40
2022-10-19T04:46:07.789Z,5.60
2022-10-19T04:51:03.620Z,5.18
2022-10-19T04:53:31.527Z,5.50
2022-10-19T04:55:59.073Z,5.28
2022-10-19T04:58:27.476Z,5.82
2022-10-19T05:00:54.767Z,6.32
2022-10-19T05:03:22.562Z,6.07
2022-10-19T05:05:50.253Z,5.40
2022-10-19T05:08:18.074Z,6.07
2022-10-19T05:10:47.721Z,6.70
2022-10-19T05:13:15.914Z,6.68
2022-10-19T05:15:43.381Z,6.95
2022-10-19T05:18:11.024Z,7.25
2022-10-19T05:20:38.724Z,6.60
2022-10-19T05:23:07.442Z,7.10
2022-10-19T05:25:35.366Z,6.10
2022-10-19T05:28:03.341Z,6.10
2022-10-19T05:30:31.119Z,6.13
2022-10-19T05:33:00.928Z,5.93
2022-10-19T05:35:32.582Z,5.43
2022-10-19T05:38:02.042Z,7.05
2022-10-19T05:40:32.246Z,6.57
2022-10-19T05:43:02.448Z,6.43
2022-10-19T05:45:32.608Z,6.25
2022-10-19T05:48:03.773Z,6.03
2022-10-19T05:50:35.276Z,6.43
2022-10-19T05:53:05.548Z,6.00
2022-10-19T05:55:36.330Z,5.93
2022-10-19T05:58:04.096Z,7.05
2022-10-19T06:00:31.709Z,6.53
2022-10-19T06:02:59.344Z,6.93
2022-10-19T06:05:27.153Z,7.13
2022-10-19T06:07:54.528Z,6.70
2022-10-19T06:10:22.363Z,7.15
2022-10-19T06:12:49.792Z,7.10
2022-10-19T06:15:17.260Z,7.00
2022-10-19T06:17:44.979Z,6.80
2022-10-19T06:20:13.483Z,6.60
2022-10-19T06:22:42.961Z,7.75
2022-10-19T06:25:10.834Z,7.05
2022-10-19T06:27:39.959Z,6.68
2022-10-19T06:30:08.045Z,6.80
2022-10-19T06:32:35.645Z,6.95
2022-10-19T06:35:03.582Z,6.90
2022-10-19T06:37:31.605Z,6.70
2022-10-19T06:40:02.410Z,6.80
2022-10-19T06:45:00.693Z,6.57
2022-10-19T06:47:33.379Z,7.47
2022-10-19T06:52:29.029Z,7.35
2022-10-19T06:54:56.682Z,6.50
2022-10-19T06:57:24.381Z,7.13
2022-10-19T06:59:53.706Z,6.53
2022-10-19T07:02:21.954Z,6.80
2022-10-19T07:04:49.507Z,7.25
2022-10-19T07:07:17.191Z,7.63
2022-10-19T07:09:44.579Z,7.03
2022-10-19T07:12:12.283Z,7.32
2022-10-19T07:14:40.039Z,7.28
2022-10-19T07:17:08.405Z,7.18
2022-10-19T07:19:36.128Z,8.10
2022-10-19T07:22:03.896Z,7.85
2022-10-19T07:24:31.485Z,8.32
2022-10-19T07:26:59.558Z,9.60
2022-10-19T07:29:27.433Z,8.00
2022-10-19T07:31:55.142Z,7.90
2022-10-19T07:34:25.424Z,8.15
2022-10-19T07:39:23.291Z,7.28
2022-10-19T07:41:51.678Z,7.75
2022-10-19T07:44:19.712Z,7.22
2022-10-19T07:46:47.634Z,7.00
2022-10-19T07:49:18.948Z,7.60
2022-10-19T07:51:47.331Z,7.97
2022-10-19T07:54:14.713Z,7.82
2022-10-19T07:56:42.592Z,7.35
2022-10-19T07:59:10.470Z,6.80
2022-10-19T08:01:41.742Z,6.90
2022-10-19T08:06:56.981Z,6.35
2022-10-19T08:09:51.536Z,5.78
2022-10-19T08:12:15.373Z,6.13
2022-10-19T08:14:43.469Z,6.55
2022-10-19T08:17:16.943Z,6.15
2022-10-19T08:19:45.689Z,6.05
2022-10-19T08:22:13.441Z,7.00
2022-10-19T08:24:40.983Z,6.75
2022-10-19T08:27:08.585Z,6.53
2022-10-19T08:29:36.007Z,6.93
2022-10-19T08:32:03.480Z,6.57
2022-10-19T08:34:33.344Z,6.85
2022-10-19T08:37:10.192Z,7.38
2022-10-19T08:39:47.939Z,6.57
2022-10-19T08:42:20.917Z,8.27
2022-10-19T08:48:01.071Z,7.60
2022-10-19T08:50:39.201Z,7.70
2022-10-19T08:53:12.650Z,7.53
2022-10-19T08:58:45.076Z,6.00
2022-10-19T09:01:24.906Z,6.25
2022-10-19T09:04:02.251Z,5.40
2022-10-19T09:06:37.448Z,5.20
2022-10-19T09:09:06.138Z,5.28
2022-10-19T09:11:39.133Z,5.25
2022-10-19T09:14:16.574Z,5.07
2022-10-19T09:16:44.770Z,4.68
2022-10-19T09:19:22.113Z,5.22
2022-10-19T09:21:59.771Z,4.60
2022-10-19T09:24:32.536Z,4.70
2022-10-19T09:27:01.770Z,4.75
2022-10-19T09:29:46.870Z,4.78
2022-10-19T09:32:19.900Z,5.90
2022-10-19T09:34:54.363Z,5.55
2022-10-19T09:37:26.500Z,5.30
2022-10-19T09:39:56.777Z,4.70
2022-10-19T09:42:31.882Z,4.82
2022-10-19T09:45:04.011Z,4.47
2022-10-19T09:47:44.001Z,5.07
2022-10-19T09:50:25.418Z,5.00
2022-10-19T09:53:00.464Z,5.00
2022-10-19T09:55:40.056Z,5.35
2022-10-19T09:58:22.038Z,6.30
2022-10-19T10:00:56.525Z,6.63
2022-10-19T10:03:30.843Z,6.78
2022-10-19T10:06:07.637Z,7.60
2022-10-19T10:08:40.598Z,7.82
2022-10-19T10:13:51.903Z,8.30
2022-10-19T10:16:25.881Z,8.73
2022-10-19T10:18:59.890Z,8.70
2022-10-19T10:21:36.015Z,8.95
2022-10-19T10:24:18.495Z,9.10
2022-10-19T10:26:51.858Z,9.43
2022-10-19T10:29:37.220Z,9.93
2022-10-19T10:32:14.086Z,11.32
2022-10-19T10:34:53.837Z,13.48
2022-10-19T10:37:30.372Z,13.75
2022-10-19T10:40:02.022Z,13.20
2022-10-19T10:42:43.047Z,13.30
2022-10-19T10:45:21.190Z,14.50
2022-10-19T10:47:50.911Z,14.00
2022-10-19T10:50:24.706Z,11.63
2022-10-19T10:53:03.758Z,11.23
2022-10-19T10:55:34.425Z,11.70
2022-10-19T10:58:14.298Z,11.55
2022-10-19T11:00:44.326Z,11.13
2022-10-19T11:03:20.297Z,10.43
2022-10-19T11:05:57.388Z,9.70
2022-10-19T11:08:56.932Z,9.18
2022-10-19T11:11:31.137Z,9.77
2022-10-19T11:14:21.674Z,8.93
2022-10-19T11:16:52.639Z,9.25
2022-10-19T11:19:32.171Z,9.43
2022-10-19T11:22:29.817Z,8.55
2022-10-19T11:25:31.348Z,8.85
2022-10-19T11:28:28.756Z,8.57
2022-10-19T11:31:20.304Z,8.20
2022-10-19T11:34:01.098Z,8.82
2022-10-19T11:36:47.834Z,10.48
2022-10-19T11:39:30.751Z,9.32
2022-10-19T11:42:19.653Z,9.38
2022-10-19T11:45:01.829Z,8.02
2022-10-19T11:47:51.410Z,8.02
2022-10-19T11:50:54.125Z,7.20
2022-10-19T11:53:54.334Z,6.55
2022-10-19T11:57:01.657Z,6.07
2022-10-19T11:59:51.706Z,6.85
2022-10-19T12:02:49.807Z,6.18
2022-10-19T12:05:42.285Z,6.90
2022-10-19T12:08:42.697Z,5.97
2022-10-19T12:11:42.040Z,5.90
2022-10-19T12:14:18.629Z,5.88
2022-10-19T12:16:55.790Z,5.82
2022-10-19T12:19:27.682Z,5.90
2022-10-19T12:22:01.682Z,6.05
2022-10-19T12:24:35.664Z,6.13
2022-10-19T12:27:06.506Z,6.25
2022-10-19T12:29:40.549Z,6.88
2022-10-19T12:32:14.478Z,6.57
2022-10-19T12:34:58.800Z,5.97
2022-10-19T12:37:40.599Z,6.32
2022-10-19T12:40:36.091Z,6.28
2022-10-19T12:43:16.467Z,6.40
2022-10-19T12:45:53.899Z,6.30
2022-10-19T12:48:28.980Z,5.80
2022-10-19T12:51:02.765Z,6.03
2022-10-19T12:53:37.091Z,6.20
2022-10-19T12:56:13.938Z,6.47
2022-10-19T12:58:57.601Z,6.80
2022-10-19T13:01:29.861Z,5.90
2022-10-19T13:04:16.660Z,6.37
2022-10-19T13:06:49.834Z,6.40
2022-10-19T13:12:31.730Z,6.20
2022-10-19T13:15:01.786Z,6.05
2022-10-19T13:17:41.915Z,6.57
2022-10-19T13:20:51.043Z,6.82
2022-10-19T13:23:41.758Z,7.15
2022-10-19T13:26:30.603Z,8.43
2022-10-19T13:28:59.651Z,7.88
2022-10-19T13:31:31.267Z,9.00
2022-10-19T13:33:59.762Z,8.60
2022-10-19T13:36:29.306Z,8.40
2022-10-19T13:39:06.507Z,9.45
2022-10-19T13:41:52.531Z,9.80
2022-10-19T13:44:26.703Z,8.18
2022-10-19T13:47:18.452Z,6.80
2022-10-19T13:50:13.613Z,7.47
2022-10-19T13:53:03.215Z,7.07
2022-10-19T13:55:52.430Z,6.35
2022-10-19T13:58:49.241Z,6.40
2022-10-19T14:01:39.274Z,6.00
2022-10-19T14:04:29.213Z,6.88
2022-10-19T14:07:05.498Z,6.25
2022-10-19T14:10:00.765Z,6.43
2022-10-19T14:12:31.638Z,6.57
2022-10-19T14:15:00.710Z,6.65
2022-10-19T14:17:34.707Z,7.07
2022-10-19T14:20:05.897Z,6.93
2022-10-19T14:22:37.731Z,6.70
2022-10-19T14:25:21.916Z,6.63
2022-10-19T14:28:01.099Z,6.60
2022-10-19T14:30:34.028Z,7.00
2022-10-19T14:33:10.016Z,7.03
2022-10-19T14:35:42.691Z,7.68
2022-10-19T14:38:23.797Z,7.28
2022-10-19T14:40:54.577Z,7.50
2022-10-19T14:43:27.589Z,7.63
2022-10-19T14:46:15.557Z,7.63
2022-10-19T14:48:46.125Z,7.75
2022-10-19T14:51:36.751Z,7.32
2022-10-19T14:54:18.127Z,8.48
2022-10-19T14:56:55.844Z,8.73
2022-10-19T14:59:51.957Z,8.93
2022-10-19T15:02:33.371Z,9.38
2022-10-19T15:05:05.881Z,8.70
2022-10-19T15:07:38.548Z,8.50
2022-10-19T15:10:21.364Z,9.60
2022-10-19T15:12:51.911Z,9.13
2022-10-19T15:15:28.279Z,9.30
2022-10-19T15:18:06.800Z,9.60
2022-10-19T15:20:55.151Z,9.35
2022-10-19T15:23:38.276Z,8.85
2022-10-19T15:26:27.412Z,8.88
2022-10-19T15:29:07.207Z,8.60
2022-10-19T15:31:35.867Z,8.82
2022-10-19T15:34:05.533Z,7.68
2022-10-19T15:36:33.561Z,8.15
2022-10-19T15:39:24.633Z,9.18
2022-10-19T15:41:53.573Z,8.15
2022-10-19T15:44:46.306Z,8.15
2022-10-19T15:47:22.677Z,7.47
2022-10-19T15:49:58.325Z,7.70
2022-10-19T15:52:29.492Z,7.85
2022-10-19T15:54:59.473Z,8.27
2022-10-19T15:57:32.481Z,8.13
2022-10-19T16:00:08.897Z,27.85
2022-10-19T16:02:36.877Z,7.22
2022-10-19T16:07:38.567Z,5.88
2022-10-19T16:10:07.354Z,5.00
2022-10-19T16:12:37.755Z,4.80
2022-10-19T16:15:06.261Z,3.95
2022-10-19T16:17:34.576Z,5.03
2022-10-19T16:20:02.624Z,4.00
2022-10-19T16:22:30.902Z,4.30
2022-10-19T16:24:58.462Z,3.88
2022-10-19T16:27:26.160Z,4.38
2022-10-19T16:29:55.191Z,3.92
2022-10-19T16:32:26.088Z,4.03
2022-10-19T16:34:54.450Z,4.10
2022-10-19T16:37:22.173Z,4.03
2022-10-19T16:39:49.693Z,4.82
2022-10-19T16:42:17.509Z,3.88
2022-10-19T16:44:45.166Z,3.95
2022-10-19T16:47:13.221Z,4.28
2022-10-19T16:49:40.976Z,3.45
2022-10-19T16:52:08.523Z,3.47
2022-10-19T16:54:36.393Z,3.70
2022-10-19T16:57:09.455Z,3.22
2022-10-19T16:59:38.465Z,3.72
2022-10-19T17:02:06.345Z,3.40
2022-10-19T17:04:34.078Z,2.97
2022-10-19T17:07:02.333Z,3.25
2022-10-19T17:09:41.485Z,3.45
2022-10-19T17:12:11.369Z,3.45
2022-10-19T17:14:42.079Z,3.13
2022-10-19T17:17:12.198Z,3.50
2022-10-19T17:19:42.087Z,3.47
2022-10-19T17:22:12.344Z,3.45
2022-10-19T17:24:43.044Z,4.55
2022-10-19T17:27:14.682Z,3.55
2022-10-19T17:29:43.181Z,4.07
2022-10-19T17:32:10.972Z,3.78
2022-10-19T17:34:39.265Z,3.60
2022-10-19T17:37:07.413Z,3.60
2022-10-19T17:39:36.199Z,3.42
2022-10-19T17:42:05.308Z,3.53
2022-10-19T17:44:33.498Z,3.55
2022-10-19T17:47:03.355Z,4.00
2022-10-19T17:49:32.629Z,3.97
2022-10-19T17:52:01.414Z,3.45
2022-10-19T17:54:29.921Z,3.80
2022-10-19T17:56:58.396Z,3.53
2022-10-19T17:59:34.622Z,3.70
2022-10-19T18:02:04.766Z,3.90
2022-10-19T18:04:33.003Z,3.65
2022-10-19T18:07:04.124Z,3.90
2022-10-19T18:09:32.790Z,4.25
2022-10-19T18:12:04.911Z,4.13
2022-10-19T18:14:35.162Z,3.58
2022-10-19T18:17:03.291Z,3.70
2022-10-19T18:19:31.574Z,3.70
2022-10-19T18:21:59.695Z,3.42
2022-10-19T18:24:27.954Z,3.58
2022-10-19T18:26:56.253Z,3.70
2022-10-19T18:29:26.373Z,3.45
2022-10-19T18:31:55.612Z,3.08
2022-10-19T18:34:28.812Z,3.40
2022-10-19T18:36:57.288Z,3.50
2022-10-19T18:39:25.651Z,3.63
2022-10-19T18:41:55.517Z,4.65
2022-10-19T18:44:27.283Z,3.45
2022-10-19T18:46:57.581Z,3.40
2022-10-19T18:49:29.123Z,3.92
2022-10-19T18:51:57.806Z,3.97
2022-10-19T18:54:28.954Z,4.28
2022-10-19T18:56:58.278Z,4.57
2022-10-19T19:01:57.094Z,4.80
2022-10-19T19:04:26.053Z,4.47
2022-10-19T19:06:55.527Z,4.40
2022-10-19T19:09:24.760Z,4.88
2022-10-19T19:11:58.582Z,4.97
2022-10-19T19:14:27.888Z,4.70
2022-10-19T19:16:56.505Z,4.95
2022-10-19T19:19:26.643Z,3.78
2022-10-19T19:21:58.133Z,4.18
2022-10-19T19:24:32.047Z,3.50
2022-10-19T19:27:00.877Z,3.67
2022-10-19T19:29:30.853Z,3.72
2022-10-19T19:31:59.730Z,4.22
2022-10-19T19:34:28.797Z,3.42
2022-10-19T19:36:57.113Z,4.05
2022-10-19T19:39:29.395Z,4.45
2022-10-19T19:41:58.529Z,5.38
2022-10-19T19:44:30.794Z,4.43
2022-10-19T19:47:01.368Z,4.18
2022-10-19T19:49:30.927Z,3.95
2022-10-19T19:51:59.925Z,3.75
2022-10-19T19:54:30.902Z,4.07
2022-10-19T19:56:59.907Z,4.18
2022-10-19T19:59:31.061Z,3.40
2022-10-19T20:02:00.058Z,3.95
2022-10-19T20:04:29.423Z,3.75
2022-10-19T20:07:00.020Z,3.83
2022-10-19T20:09:29.885Z,6.85
2022-10-19T20:11:58.861Z,3.90
2022-10-19T20:14:30.984Z,3.70
2022-10-19T20:17:00.139Z,3.77
2022-10-19T20:19:28.875Z,3.25
2022-10-19T20:21:58.862Z,3.72
2022-10-19T20:24:27.651Z,3.10
2022-10-19T20:26:57.316Z,3.47
2022-10-19T20:29:25.640Z,2.75
2022-10-19T20:31:54.228Z,3.42
2022-10-19T20:34:24.022Z,3.17
2022-10-19T20:36:53.234Z,2.80
2022-10-19T20:39:21.899Z,3.13
2022-10-19T20:41:49.991Z,3.00
2022-10-19T20:44:18.206Z,3.08
2022-10-19T20:46:46.344Z,2.83
2022-10-19T20:49:14.255Z,2.63
2022-10-19T20:51:42.441Z,2.85
2022-10-19T20:54:12.960Z,2.72
2022-10-19T20:56:42.236Z,2.50
2022-10-19T20:59:15.109Z,2.28
2022-10-19T21:01:46.848Z,2.30
2022-10-19T21:04:17.341Z,2.20
2022-10-19T21:06:47.960Z,2.30
2022-10-19T21:09:19.115Z,2.38
2022-10-19T21:11:47.835Z,2.05
2022-10-19T21:14:22.341Z,2.28
2022-10-19T21:16:52.937Z,2.03
2022-10-19T21:19:23.869Z,2.13
2022-10-19T21:21:55.846Z,2.25
2022-10-19T21:24:26.246Z,2.40
2022-10-19T21:26:54.124Z,2.08
2022-10-19T21:29:21.904Z,2.63
2022-10-19T21:31:52.328Z,2.50
2022-10-19T21:34:23.076Z,2.40
2022-10-19T21:36:51.162Z,2.83
2022-10-19T21:39:18.980Z,3.83
2022-10-19T21:41:47.216Z,3.42
2022-10-19T21:44:16.166Z,2.60
2022-10-19T21:46:44.082Z,2.50
2022-10-19T21:49:12.783Z,2.35
2022-10-19T21:51:46.588Z,2.78
2022-10-19T21:54:17.186Z,3.00
2022-10-19T21:56:45.081Z,3.10
2022-10-19T21:59:13.177Z,2.58
2022-10-19T22:01:41.448Z,3.40
2022-10-19T22:04:13.397Z,3.10
2022-10-19T22:06:41.743Z,3.53
2022-10-19T22:09:12.894Z,3.28
2022-10-19T22:11:40.509Z,3.22
2022-10-19T22:14:08.372Z,3.25
2022-10-19T22:16:37.149Z,3.45
2022-10-19T22:19:06.241Z,3.50
2022-10-19T22:21:35.553Z,3.13
2022-10-19T22:24:06.851Z,3.38
2022-10-19T22:26:38.330Z,3.50
2022-10-19T22:29:07.352Z,3.70
2022-10-19T22:31:36.477Z,3.55
2022-10-19T22:34:07.902Z,3.35
2022-10-19T22:36:35.774Z,3.60
2022-10-19T22:39:03.673Z,4.03
2022-10-19T22:41:31.216Z,4.57
2022-10-19T22:43:58.601Z,3.90
2022-10-19T22:46:26.081Z,4.40
2022-10-19T22:48:53.574Z,4.68
2022-10-19T22:51:21.325Z,3.80
2022-10-19T22:53:49.168Z,3.88
2022-10-19T22:56:16.589Z,3.90
2022-10-19T22:58:44.404Z,3.88
2022-10-19T23:01:14.030Z,3.75
2022-10-19T23:03:42.156Z,3.60
2022-10-19T23:06:12.630Z,3.40
2022-10-19T23:08:40.243Z,3.50
2022-10-19T23:11:08.134Z,3.58
2022-10-19T23:13:36.878Z,3.40
2022-10-19T23:16:06.028Z,3.58
2022-10-19T23:18:34.408Z,3.10
2022-10-19T23:21:04.579Z,3.40
2022-10-19T23:23:33.494Z,3.03
2022-10-19T23:26:03.444Z,3.28
2022-10-19T23:28:32.267Z,3.30
2022-10-19T23:31:04.667Z,3.28
2022-10-19T23:33:33.563Z,3.50
2022-10-19T23:36:05.673Z,3.35
2022-10-19T23:38:33.732Z,3.15
2022-10-19T23:41:01.456Z,3.40
2022-10-19T23:43:29.564Z,3.15
2022-10-19T23:45:57.368Z,3.25
2022-10-19T23:48:25.245Z,3.00
2022-10-19T23:51:09.388Z,3.05
2022-10-19T23:53:41.042Z,2.55
2022-10-19T23:56:26.551Z,2.67
2022-10-19T23:58:55.032Z,2.30
